Time;durP1;ratioP1;P1;durP2;ratioP2;P2;SDS_P1;SDS_P2;PMS_P1;PMS_P2;Temp;Humidity;BMP_temperature;BMP_pressure;BME280_temperature;BME280_humidity;BME280_pressure;Samples;Min_cycle;Max_cycle;Signal;HPM_P1;HPM_P2
2024/02/24 00:00:03;;;;;;;6.63;2.80;;;;;;;;;;6159224;23;20008;-94
2024/02/24 00:02:28;;;;;;;4.95;1.90;;;;;;;;;;6159600;23;20094;-93
2024/02/24 00:04:56;;;;;;;4.93;1.90;;;;;;;;;;6158877;23;20000;-94
2024/02/24 00:07:21;;;;;;;4.47;1.90;;;;;;;;;;6158730;23;20004;-93
2024/02/24 00:09:46;;;;;;;3.90;1.70;;;;;;;;;;6185096;23;20001;-94
2024/02/24 00:12:11;;;;;;;8.57;1.92;;;;;;;;;;6159204;23;20424;-93
2024/02/24 00:14:37;;;;;;;3.88;1.70;;;;;;;;;;6159392;23;20001;-93
2024/02/24 00:17:02;;;;;;;9.03;3.60;;;;;;;;;;6158603;23;20416;-93
2024/02/24 00:19:27;;;;;;;8.10;2.33;;;;;;;;;;6158944;23;20699;-94
2024/02/24 00:21:53;;;;;;;5.88;2.00;;;;;;;;;;6158856;23;20005;-93
2024/02/24 00:24:18;;;;;;;5.43;2.23;;;;;;;;;;6164793;23;20009;-93
2024/02/24 00:26:43;;;;;;;4.80;1.50;;;;;;;;;;6183529;23;20262;-93
2024/02/24 00:29:08;;;;;;;8.30;2.10;;;;;;;;;;6183699;23;20420;-93
2024/02/24 00:31:33;;;;;;;5.95;1.58;;;;;;;;;;6184038;23;20438;-93
2024/02/24 00:33:59;;;;;;;4.57;1.83;;;;;;;;;;6184191;23;20052;-93
2024/02/24 00:36:24;;;;;;;6.25;2.03;;;;;;;;;;6184971;23;19993;-94
2024/02/24 00:38:49;;;;;;;9.38;2.67;;;;;;;;;;6183445;23;20012;-94
2024/02/24 00:41:15;;;;;;;8.93;2.35;;;;;;;;;;6183787;23;19997;-93
2024/02/24 00:43:40;;;;;;;13.75;2.42;;;;;;;;;;6183311;23;20001;-94
2024/02/24 00:46:06;;;;;;;6.68;2.17;;;;;;;;;;6183471;23;20443;-93
2024/02/24 00:48:32;;;;;;;6.35;1.95;;;;;;;;;;6183747;23;20012;-93
2024/02/24 00:50:57;;;;;;;6.50;1.90;;;;;;;;;;6183443;23;20392;-93
2024/02/24 00:53:22;;;;;;;9.95;1.90;;;;;;;;;;6183166;23;20689;-93
2024/02/24 00:55:47;;;;;;;4.10;2.08;;;;;;;;;;6184563;23;20028;-94
2024/02/24 00:58:13;;;;;;;7.53;2.15;;;;;;;;;;6185155;23;19993;-93
2024/02/24 01:00:38;;;;;;;7.03;2.22;;;;;;;;;;6185043;23;20020;-94
2024/02/24 01:03:03;;;;;;;4.93;1.73;;;;;;;;;;6183276;23;19997;-93
2024/02/24 01:05:28;;;;;;;5.32;1.95;;;;;;;;;;6183455;23;20428;-92
2024/02/24 01:07:56;;;;;;;5.03;2.05;;;;;;;;;;6184121;23;20436;-93
2024/02/24 01:10:21;;;;;;;4.47;1.70;;;;;;;;;;6185332;23;20379;-94
2024/02/24 01:12:47;;;;;;;3.63;1.98;;;;;;;;;;6185443;23;20076;-93
2024/02/24 01:15:12;;;;;;;6.75;2.28;;;;;;;;;;6185810;23;20024;-92
2024/02/24 01:17:37;;;;;;;4.70;1.70;;;;;;;;;;6185609;23;20001;-93
2024/02/24 01:20:02;;;;;;;4.05;1.95;;;;;;;;;;6185668;23;20435;-93
2024/02/24 01:22:28;;;;;;;7.53;2.10;;;;;;;;;;6185338;23;20004;-93
2024/02/24 01:24:55;;;;;;;3.67;1.77;;;;;;;;;;6185044;23;20069;-94
2024/02/24 01:27:20;;;;;;;3.13;1.75;;;;;;;;;;6185454;23;20012;-94
2024/02/24 01:29:45;;;;;;;6.25;2.10;;;;;;;;;;6185139;23;19993;-93
2024/02/24 01:32:10;;;;;;;5.13;2.63;;;;;;;;;;6185280;23;19997;-93
2024/02/24 01:34:36;;;;;;;5.55;2.15;;;;;;;;;;6185304;23;20217;-94
2024/02/24 01:37:01;;;;;;;6.15;2.45;;;;;;;;;;6185014;23;20379;-94
2024/02/24 01:39:26;;;;;;;8.80;3.00;;;;;;;;;;6186010;23;20481;-93
2024/02/24 01:41:51;;;;;;;2.88;2.15;;;;;;;;;;6185750;23;20028;-94
2024/02/24 01:44:18;;;;;;;6.68;2.83;;;;;;;;;;6185812;23;19997;-92
2024/02/24 01:46:47;;;;;;;3.78;2.05;;;;;;;;;;6185334;23;20011;-93
2024/02/24 01:49:12;;;;;;;10.00;2.53;;;;;;;;;;6185193;23;20005;-93
2024/02/24 01:51:37;;;;;;;6.85;2.53;;;;;;;;;;6185253;23;20023;-94
2024/02/24 01:54:03;;;;;;;5.38;2.63;;;;;;;;;;6185644;23;20454;-93
2024/02/24 01:56:28;;;;;;;6.88;2.45;;;;;;;;;;6185206;23;20001;-94
2024/02/24 01:58:54;;;;;;;4.18;2.42;;;;;;;;;;6185395;23;20001;-94
2024/02/24 02:01:19;;;;;;;4.93;2.83;;;;;;;;;;6185339;23;20243;-94
2024/02/24 02:03:44;;;;;;;10.15;2.85;;;;;;;;;;6184957;23;20001;-93
2024/02/24 02:06:11;;;;;;;5.70;2.47;;;;;;;;;;6184350;23;20032;-94
2024/02/24 02:08:36;;;;;;;8.90;2.50;;;;;;;;;;6185064;23;20424;-94
2024/02/24 02:11:01;;;;;;;4.55;1.73;;;;;;;;;;6184876;23;20024;-94
2024/02/24 02:13:26;;;;;;;9.75;2.22;;;;;;;;;;6184885;23;20001;-93
2024/02/24 02:15:53;;;;;;;4.85;2.30;;;;;;;;;;6185129;23;20479;-93
2024/02/24 02:18:19;;;;;;;3.95;2.17;;;;;;;;;;6184718;23;20001;-94
2024/02/24 02:20:45;;;;;;;3.25;2.25;;;;;;;;;;6184464;23;20458;-93
2024/02/24 02:23:10;;;;;;;3.00;1.85;;;;;;;;;;6185123;23;19993;-93
2024/02/24 02:25:36;;;;;;;5.85;2.30;;;;;;;;;;6184851;23;20093;-94
2024/02/24 02:28:01;;;;;;;6.15;2.22;;;;;;;;;;6184722;23;20436;-92
2024/02/24 02:30:26;;;;;;;8.73;2.88;;;;;;;;;;6184618;23;20032;-94
2024/02/24 02:32:51;;;;;;;4.32;1.67;;;;;;;;;;6185050;23;20001;-94
2024/02/24 02:35:17;;;;;;;5.37;2.00;;;;;;;;;;6184875;23;20008;-93
2024/02/24 02:37:43;;;;;;;7.65;2.60;;;;;;;;;;6186444;23;20223;-94
2024/02/24 02:40:08;;;;;;;5.53;2.25;;;;;;;;;;6184163;23;20007;-95
2024/02/24 02:42:34;;;;;;;4.32;2.30;;;;;;;;;;6184554;23;20008;-94
2024/02/24 02:44:59;;;;;;;6.97;2.80;;;;;;;;;;6184800;23;19997;-93
2024/02/24 02:47:24;;;;;;;5.53;2.20;;;;;;;;;;6185261;23;20013;-94
2024/02/24 02:49:50;;;;;;;10.57;2.08;;;;;;;;;;6186044;23;19996;-95
2024/02/24 02:52:15;;;;;;;6.78;2.00;;;;;;;;;;6184964;23;20000;-94
2024/02/24 02:54:40;;;;;;;6.20;2.22;;;;;;;;;;6184502;23;20008;-92
2024/02/24 02:57:05;;;;;;;7.43;1.80;;;;;;;;;;6184789;23;20001;-94
2024/02/24 02:59:34;;;;;;;4.13;1.90;;;;;;;;;;6184715;23;20080;-95
2024/02/24 03:01:59;;;;;;;3.53;1.70;;;;;;;;;;6184772;23;20511;-92
2024/02/24 03:04:24;;;;;;;6.47;1.67;;;;;;;;;;6184590;23;20028;-94
2024/02/24 03:06:50;;;;;;;4.13;1.90;;;;;;;;;;6184474;23;20005;-95
2024/02/24 03:09:15;;;;;;;5.45;1.92;;;;;;;;;;6184370;23;19996;-94
2024/02/24 03:11:40;;;;;;;4.78;1.75;;;;;;;;;;6184865;23;19997;-94
2024/02/24 03:14:05;;;;;;;4.20;1.70;;;;;;;;;;6184355;23;20007;-93
2024/02/24 03:16:31;;;;;;;4.43;1.67;;;;;;;;;;6184349;23;20048;-94
2024/02/24 03:18:56;;;;;;;7.95;1.70;;;;;;;;;;6184651;23;20447;-93
2024/02/24 03:21:28;;;;;;;9.57;2.70;;;;;;;;;;6184844;23;20438;-94
2024/02/24 03:23:54;;;;;;;4.93;1.95;;;;;;;;;;6184765;23;20009;-93
2024/02/24 03:26:19;;;;;;;5.78;1.40;;;;;;;;;;6184640;23;20005;-94
2024/02/24 03:28:44;;;;;;;4.28;1.63;;;;;;;;;;6184902;23;20331;-95
2024/02/24 03:31:10;;;;;;;11.60;2.57;;;;;;;;;;6184747;23;20499;-95
2024/02/24 03:33:35;;;;;;;5.95;1.65;;;;;;;;;;6185089;23;20317;-93
2024/02/24 03:36:01;;;;;;;4.57;1.50;;;;;;;;;;6185086;23;20029;-94
2024/02/24 03:38:26;;;;;;;3.97;1.90;;;;;;;;;;6184778;23;20249;-94
2024/02/24 03:40:51;;;;;;;5.63;2.13;;;;;;;;;;6184370;23;19997;-93
2024/02/24 03:43:16;;;;;;;10.20;2.10;;;;;;;;;;6185901;23;20009;-94
2024/02/24 03:45:42;;;;;;;5.43;2.00;;;;;;;;;;6184091;23;19997;-94
2024/02/24 03:48:07;;;;;;;5.00;1.63;;;;;;;;;;6183886;23;20036;-94
2024/02/24 03:50:32;;;;;;;3.67;1.95;;;;;;;;;;6183682;23;20001;-94
2024/02/24 03:52:57;;;;;;;4.68;1.45;;;;;;;;;;6184243;23;20024;-94
2024/02/24 03:55:22;;;;;;;2.28;1.35;;;;;;;;;;6183964;23;20004;-93
2024/02/24 03:57:48;;;;;;;5.93;2.83;;;;;;;;;;6184098;23;20001;-93
2024/02/24 04:00:13;;;;;;;2.50;1.57;;;;;;;;;;6184492;23;20215;-93
2024/02/24 04:02:39;;;;;;;5.53;1.80;;;;;;;;;;6184073;23;20598;-93
2024/02/24 04:05:05;;;;;;;5.95;1.90;;;;;;;;;;6184199;23;19997;-94
2024/02/24 04:07:30;;;;;;;3.75;1.88;;;;;;;;;;6184240;23;20067;-93
2024/02/24 04:09:55;;;;;;;6.22;2.10;;;;;;;;;;6184010;23;20001;-94
2024/02/24 04:12:20;;;;;;;5.28;1.95;;;;;;;;;;6185593;23;20034;-93
2024/02/24 04:14:45;;;;;;;3.22;1.67;;;;;;;;;;6183713;23;20127;-93
2024/02/24 04:17:11;;;;;;;4.07;2.00;;;;;;;;;;6184086;23;19997;-94
2024/02/24 04:19:36;;;;;;;4.55;1.98;;;;;;;;;;6184036;23;20004;-93
2024/02/24 04:22:03;;;;;;;5.28;2.08;;;;;;;;;;6159388;23;20388;-93
2024/02/24 04:24:28;;;;;;;5.07;1.77;;;;;;;;;;6183778;23;20015;-93
2024/02/24 04:26:53;;;;;;;4.53;2.03;;;;;;;;;;6183467;23;20067;-93
2024/02/24 04:29:19;;;;;;;11.73;2.70;;;;;;;;;;6185188;23;20229;-94
2024/02/24 04:31:44;;;;;;;4.33;1.70;;;;;;;;;;6183938;23;20005;-94
2024/02/24 04:34:09;;;;;;;6.70;1.85;;;;;;;;;;6183841;23;20219;-94
2024/02/24 04:36:39;;;;;;;7.22;2.47;;;;;;;;;;6183714;23;20083;-94
2024/02/24 04:39:04;;;;;;;5.35;1.73;;;;;;;;;;6183837;23;20020;-94
2024/02/24 04:41:29;;;;;;;3.28;1.75;;;;;;;;;;6184011;23;20385;-94
2024/02/24 04:43:54;;;;;;;5.77;2.13;;;;;;;;;;6183689;23;20324;-93
2024/02/24 04:46:20;;;;;;;5.55;1.90;;;;;;;;;;6183574;23;20693;-94
2024/02/24 04:48:45;;;;;;;9.90;2.00;;;;;;;;;;6183925;23;20029;-94
2024/02/24 04:51:10;;;;;;;7.13;2.17;;;;;;;;;;6183954;23;20011;-94
2024/02/24 04:53:35;;;;;;;5.10;1.65;;;;;;;;;;6183858;23;20036;-94
2024/02/24 04:56:00;;;;;;;3.08;1.85;;;;;;;;;;6185332;23;20004;-93
2024/02/24 04:58:27;;;;;;;6.20;2.00;;;;;;;;;;6184192;23;19997;-94
2024/02/24 05:00:52;;;;;;;3.58;1.80;;;;;;;;;;6183552;23;20223;-93
2024/02/24 05:03:17;;;;;;;5.97;2.53;;;;;;;;;;6185324;23;20021;-94
2024/02/24 05:05:42;;;;;;;8.13;1.80;;;;;;;;;;6183987;23;20063;-95
2024/02/24 05:08:07;;;;;;;6.20;2.00;;;;;;;;;;6183932;23;20016;-94
2024/02/24 05:10:33;;;;;;;5.65;1.80;;;;;;;;;;6184171;23;20084;-94
2024/02/24 05:12:58;;;;;;;6.43;1.85;;;;;;;;;;6183907;23;20007;-94
2024/02/24 05:15:23;;;;;;;4.35;2.08;;;;;;;;;;6183587;23;19993;-93
2024/02/24 05:17:49;;;;;;;6.68;2.10;;;;;;;;;;6183835;23;20001;-94
2024/02/24 05:20:14;;;;;;;6.40;1.88;;;;;;;;;;6183755;23;20379;-93
2024/02/24 05:22:39;;;;;;;5.20;1.85;;;;;;;;;;6183604;23;19997;-94
2024/02/24 05:25:06;;;;;;;7.30;2.28;;;;;;;;;;6183295;23;20036;-94
2024/02/24 05:27:31;;;;;;;5.93;2.00;;;;;;;;;;6183553;23;20009;-93
2024/02/24 05:29:56;;;;;;;6.10;1.50;;;;;;;;;;6183849;23;20020;-93
2024/02/24 05:32:21;;;;;;;7.10;1.60;;;;;;;;;;6183611;23;20558;-94
2024/02/24 05:34:47;;;;;;;5.85;1.52;;;;;;;;;;6182985;23;19997;-93
2024/02/24 05:37:12;;;;;;;5.10;1.17;;;;;;;;;;6183699;23;20001;-94
2024/02/24 05:39:38;;;;;;;5.30;1.35;;;;;;;;;;6183645;23;20484;-93
2024/02/24 05:42:04;;;;;;;2.55;1.50;;;;;;;;;;6183557;23;20060;-93
2024/02/24 05:44:29;;;;;;;4.65;1.60;;;;;;;;;;6183441;23;20076;-94
2024/02/24 05:46:54;;;;;;;2.50;1.30;;;;;;;;;;6183155;23;20436;-94
2024/02/24 05:49:19;;;;;;;3.07;1.23;;;;;;;;;;6183444;23;20487;-94
2024/02/24 05:51:44;;;;;;;2.40;1.27;;;;;;;;;;6183451;23;20313;-94
2024/02/24 05:54:10;;;;;;;5.10;1.40;;;;;;;;;;6184320;23;20254;-94
2024/02/24 05:56:35;;;;;;;6.80;1.55;;;;;;;;;;6186532;23;20412;-94
2024/02/24 05:59:00;;;;;;;2.92;1.02;;;;;;;;;;6185319;23;20497;-93
2024/02/24 06:01:26;;;;;;;6.18;1.48;;;;;;;;;;6185367;23;20400;-93
2024/02/24 06:03:51;;;;;;;8.35;3.45;;;;;;;;;;6185101;23;20482;-94
2024/02/24 06:06:18;;;;;;;8.18;1.38;;;;;;;;;;6184710;23;20008;-93
2024/02/24 06:08:43;;;;;;;13.10;2.83;;;;;;;;;;6184684;23;20008;-93
2024/02/24 06:11:08;;;;;;;6.65;1.52;;;;;;;;;;6185044;23;20360;-94
2024/02/24 06:13:34;;;;;;;5.67;1.13;;;;;;;;;;6185199;23;20032;-93
2024/02/24 06:15:59;;;;;;;6.97;1.73;;;;;;;;;;6184848;23;20219;-93
2024/02/24 06:18:24;;;;;;;7.25;1.55;;;;;;;;;;6184863;23;20028;-94
2024/02/24 06:20:50;;;;;;;2.55;1.25;;;;;;;;;;6184834;23;19993;-93
2024/02/24 06:23:15;;;;;;;6.45;1.40;;;;;;;;;;6185045;23;20027;-93
2024/02/24 06:25:40;;;;;;;3.40;1.40;;;;;;;;;;6184702;23;20100;-93
2024/02/24 06:28:10;;;;;;;5.03;1.95;;;;;;;;;;6186350;23;20005;-94
2024/02/24 06:30:35;;;;;;;5.97;1.35;;;;;;;;;;6184909;23;20416;-93
2024/02/24 06:33:00;;;;;;;7.28;1.52;;;;;;;;;;6184895;23;20005;-93
2024/02/24 06:35:26;;;;;;;10.88;1.38;;;;;;;;;;6184679;23;20005;-93
2024/02/24 06:37:51;;;;;;;5.53;1.25;;;;;;;;;;6186156;23;20096;-94
2024/02/24 06:40:16;;;;;;;8.13;1.38;;;;;;;;;;6184698;23;20001;-93
2024/02/24 06:42:41;;;;;;;6.43;1.92;;;;;;;;;;6184924;23;20005;-93
2024/02/24 06:45:07;;;;;;;2.75;1.13;;;;;;;;;;6184623;23;20051;-94
2024/02/24 06:47:32;;;;;;;5.03;1.30;;;;;;;;;;6184737;23;20364;-95
2024/02/24 06:49:57;;;;;;;3.77;1.47;;;;;;;;;;6184962;23;20024;-94
2024/02/24 06:52:23;;;;;;;2.08;1.20;;;;;;;;;;6185049;23;20234;-93
2024/02/24 06:54:48;;;;;;;5.18;1.27;;;;;;;;;;6184702;23;20328;-94
2024/02/24 06:57:13;;;;;;;3.50;1.10;;;;;;;;;;6185913;23;20005;-94
2024/02/24 06:59:38;;;;;;;6.80;1.70;;;;;;;;;;6184698;23;20052;-94
2024/02/24 07:02:04;;;;;;;4.25;1.45;;;;;;;;;;6185318;23;20223;-94
2024/02/24 07:04:30;;;;;;;6.57;1.30;;;;;;;;;;6184402;23;20271;-93
2024/02/24 07:06:55;;;;;;;7.32;1.17;;;;;;;;;;6184345;23;20015;-93
2024/02/24 07:09:21;;;;;;;6.47;1.20;;;;;;;;;;6184823;23;20048;-93
2024/02/24 07:11:46;;;;;;;8.15;1.40;;;;;;;;;;6184585;23;20008;-94
2024/02/24 07:14:11;;;;;;;5.28;1.20;;;;;;;;;;6184491;23;20001;-93
2024/02/24 07:16:36;;;;;;;4.82;1.00;;;;;;;;;;6184079;23;20083;-93
2024/02/24 07:19:02;;;;;;;3.22;0.88;;;;;;;;;;6184048;23;20001;-93
2024/02/24 07:21:27;;;;;;;13.15;1.80;;;;;;;;;;6184474;23;20001;-93
2024/02/24 07:23:53;;;;;;;2.83;1.25;;;;;;;;;;6184350;23;20028;-93
2024/02/24 07:26:19;;;;;;;4.05;1.38;;;;;;;;;;6184576;23;20075;-94
2024/02/24 07:28:44;;;;;;;4.90;1.30;;;;;;;;;;6186288;23;20009;-93
2024/02/24 07:31:10;;;;;;;5.90;1.60;;;;;;;;;;6184573;23;20001;-93
2024/02/24 07:33:35;;;;;;;7.25;1.50;;;;;;;;;;6184101;23;20080;-94
2024/02/24 07:36:00;;;;;;;4.60;1.47;;;;;;;;;;6184166;23;20009;-95
2024/02/24 07:38:26;;;;;;;2.27;1.10;;;;;;;;;;6184304;23;20219;-94
2024/02/24 07:40:51;;;;;;;6.78;1.55;;;;;;;;;;6184293;23;20523;-93
2024/02/24 07:43:16;;;;;;;3.97;1.30;;;;;;;;;;6184338;23;20001;-95
2024/02/24 07:45:42;;;;;;;7.68;1.58;;;;;;;;;;6184104;23;20234;-93
2024/02/24 07:48:07;;;;;;;8.05;2.33;;;;;;;;;;6184193;23;20009;-94
2024/02/24 07:50:32;;;;;;;4.63;1.50;;;;;;;;;;6184288;23;20081;-93
2024/02/24 07:52:57;;;;;;;8.73;1.75;;;;;;;;;;6183935;23;20012;-93
2024/02/24 07:55:23;;;;;;;3.87;1.30;;;;;;;;;;6183829;23;20430;-93
2024/02/24 07:57:48;;;;;;;9.93;3.53;;;;;;;;;;6184029;23;20756;-93
2024/02/24 08:00:14;;;;;;;11.75;7.45;;;;;;;;;;6184039;23;20008;-93
2024/02/24 08:02:39;;;;;;;8.00;2.53;;;;;;;;;;6183895;23;20411;-94
2024/02/24 08:05:05;;;;;;;10.10;1.55;;;;;;;;;;6185409;23;20004;-93
2024/02/24 08:07:30;;;;;;;9.30;1.48;;;;;;;;;;6183779;23;20412;-93
2024/02/24 08:09:56;;;;;;;4.40;1.35;;;;;;;;;;6183489;23;19997;-94
2024/02/24 08:12:21;;;;;;;4.20;1.15;;;;;;;;;;6183899;23;20047;-93
2024/02/24 08:14:46;;;;;;;6.32;1.50;;;;;;;;;;6183813;23;20317;-93
2024/02/24 08:17:11;;;;;;;3.37;1.47;;;;;;;;;;6183672;23;20001;-93
2024/02/24 08:19:37;;;;;;;6.13;1.42;;;;;;;;;;6183697;23;20222;-94
2024/02/24 08:22:05;;;;;;;3.63;1.23;;;;;;;;;;6183752;23;19996;-93
2024/02/24 08:24:31;;;;;;;5.72;1.38;;;;;;;;;;6183240;23;20004;-94
2024/02/24 08:26:56;;;;;;;5.85;0.93;;;;;;;;;;6182939;23;20328;-93
2024/02/24 08:29:21;;;;;;;4.82;1.27;;;;;;;;;;6183733;23;20004;-94
2024/02/24 08:31:47;;;;;;;6.60;1.37;;;;;;;;;;6183883;23;20055;-94
2024/02/24 08:34:12;;;;;;;2.42;1.13;;;;;;;;;;6183493;23;20234;-93
2024/02/24 08:36:38;;;;;;;4.55;1.33;;;;;;;;;;6183517;23;20011;-94
2024/02/24 08:39:03;;;;;;;5.25;0.90;;;;;;;;;;6183480;23;20077;-93
2024/02/24 08:41:31;;;;;;;5.47;0.93;;;;;;;;;;6184141;23;20073;-94
2024/02/24 08:43:57;;;;;;;4.20;1.05;;;;;;;;;;6183554;23;20051;-93
2024/02/24 08:46:22;;;;;;;5.38;0.95;;;;;;;;;;6183270;23;20039;-94
2024/02/24 08:48:48;;;;;;;2.22;0.77;;;;;;;;;;6183511;23;20001;-94
2024/02/24 08:51:13;;;;;;;6.32;0.85;;;;;;;;;;6183656;23;20002;-94
2024/02/24 08:53:38;;;;;;;3.30;0.70;;;;;;;;;;6184128;23;20092;-93
2024/02/24 08:56:04;;;;;;;9.48;1.60;;;;;;;;;;6183756;23;20004;-94
2024/02/24 08:58:30;;;;;;;8.82;1.13;;;;;;;;;;6183201;23;20001;-94
2024/02/24 09:00:56;;;;;;;4.70;1.02;;;;;;;;;;6182885;23;20001;-93
2024/02/24 09:03:21;;;;;;;6.00;1.17;;;;;;;;;;6183066;23;20005;-94
2024/02/24 09:05:47;;;;;;;4.38;1.20;;;;;;;;;;6184546;23;20442;-94
2024/02/24 09:08:12;;;;;;;6.20;1.35;;;;;;;;;;6183059;23;20391;-92
2024/02/24 09:10:37;;;;;;;7.93;1.45;;;;;;;;;;6183918;23;19997;-93
2024/02/24 09:13:02;;;;;;;6.28;1.05;;;;;;;;;;6183937;23;20001;-94
2024/02/24 09:15:27;;;;;;;9.88;1.05;;;;;;;;;;6183826;23;20001;-93
2024/02/24 09:17:53;;;;;;;5.60;1.13;;;;;;;;;;6183276;23;20070;-95
2024/02/24 09:20:18;;;;;;;7.97;1.85;;;;;;;;;;6183658;23;20020;-95
2024/02/24 09:22:43;;;;;;;5.28;1.27;;;;;;;;;;6183378;23;20005;-91
2024/02/24 09:25:15;;;;;;;10.88;1.02;;;;;;;;;;6184894;23;20012;-93
2024/02/24 09:27:40;;;;;;;;;;;;;;;;;;6159181;23;20339;-94
2024/02/24 09:30:06;;;;;;;5.38;1.00;;;;;;;;;;6160499;23;20295;-92
2024/02/24 09:32:31;;;;;;;5.05;1.20;;;;;;;;;;6160568;23;20013;-93
2024/02/24 09:34:56;;;;;;;3.88;1.13;;;;;;;;;;6187224;23;20072;-93
2024/02/24 09:37:21;;;;;;;11.35;1.42;;;;;;;;;;6161602;23;20001;-93
2024/02/24 09:39:47;;;;;;;6.82;1.13;;;;;;;;;;6161338;23;19997;-94
2024/02/24 09:42:12;;;;;;;8.02;2.10;;;;;;;;;;6160419;23;20419;-93
2024/02/24 09:44:38;;;;;;;2.85;1.02;;;;;;;;;;6160642;23;20071;-92
2024/02/24 09:47:04;;;;;;;5.28;1.10;;;;;;;;;;6160523;23;20450;-92
2024/02/24 09:49:30;;;;;;;6.32;1.10;;;;;;;;;;6187179;23;19997;-92
2024/02/24 09:51:55;;;;;;;3.95;0.70;;;;;;;;;;6161370;23;20008;-94
2024/02/24 09:54:21;;;;;;;5.93;1.25;;;;;;;;;;6162997;23;20416;-95
2024/02/24 09:56:47;;;;;;;3.75;1.10;;;;;;;;;;6160955;23;20004;-93
2024/02/24 09:59:14;;;;;;;5.82;1.13;;;;;;;;;;6161560;23;20001;-94
2024/02/24 10:01:39;;;;;;;6.28;1.30;;;;;;;;;;6160822;23;20048;-94
2024/02/24 10:04:06;;;;;;;12.15;1.23;;;;;;;;;;6160374;23;20443;-92
2024/02/24 10:06:34;;;;;;;9.07;1.38;;;;;;;;;;6159956;23;20009;-93
2024/02/24 10:08:59;;;;;;;5.93;1.23;;;;;;;;;;6160230;23;20004;-94
2024/02/24 10:11:25;;;;;;;10.82;1.20;;;;;;;;;;6160533;23;20427;-93
2024/02/24 10:13:50;;;;;;;4.07;0.90;;;;;;;;;;6160841;23;20012;-93
2024/02/24 10:16:17;;;;;;;4.60;1.00;;;;;;;;;;6161096;23;20661;-93
2024/02/24 10:18:42;;;;;;;12.50;1.33;;;;;;;;;;6160589;23;20008;-93
2024/02/24 10:21:07;;;;;;;7.18;1.33;;;;;;;;;;6161379;23;19993;-92
2024/02/24 10:23:33;;;;;;;6.00;1.00;;;;;;;;;;6161192;23;20033;-93
2024/02/24 10:25:58;;;;;;;6.00;1.33;;;;;;;;;;6161759;23;19997;-93
2024/02/24 10:28:25;;;;;;;9.23;3.05;;;;;;;;;;6161596;23;20057;-95
2024/02/24 10:30:50;;;;;;;12.23;4.18;;;;;;;;;;6162170;23;20063;-95
2024/02/24 10:33:16;;;;;;;17.23;4.30;;;;;;;;;;6163067;23;20036;-94
2024/02/24 10:35:41;;;;;;;9.98;3.67;;;;;;;;;;6161680;23;20005;-93
2024/02/24 10:38:07;;;;;;;12.30;4.57;;;;;;;;;;6163322;23;20011;-93
2024/02/24 10:40:33;;;;;;;10.73;3.53;;;;;;;;;;6161956;23;20001;-94
2024/02/24 10:42:59;;;;;;;8.57;3.13;;;;;;;;;;6162388;23;20028;-93
2024/02/24 10:45:27;;;;;;;6.43;3.55;;;;;;;;;;6161325;23;20379;-93
2024/02/24 10:47:52;;;;;;;8.60;2.95;;;;;;;;;;6160946;23;20036;-93
2024/02/24 10:50:18;;;;;;;10.88;3.40;;;;;;;;;;6161826;23;20382;-95
2024/02/24 10:52:44;;;;;;;9.43;2.80;;;;;;;;;;6161515;23;20005;-94
2024/02/24 10:55:09;;;;;;;6.63;3.13;;;;;;;;;;6162387;23;20103;-94
2024/02/24 10:57:36;;;;;;;9.23;2.38;;;;;;;;;;6161768;23;19997;-95
2024/02/24 11:00:21;;;;;;;6.13;2.78;;;;;;;;;;6162399;23;20476;-95
2024/02/24 11:02:46;;;;;;;4.97;1.80;;;;;;;;;;6162499;23;20057;-94
2024/02/24 11:05:14;;;;;;;10.20;2.40;;;;;;;;;;6163233;23;19997;-95
2024/02/24 11:07:40;;;;;;;11.82;2.45;;;;;;;;;;6164079;23;20016;-94
2024/02/24 11:10:13;;;;;;;11.00;2.17;;;;;;;;;;6164730;23;20001;-94
2024/02/24 11:12:38;;;;;;;10.43;2.00;;;;;;;;;;6169704;23;20001;-95
2024/02/24 11:15:04;;;;;;;5.47;1.80;;;;;;;;;;6171344;23;20004;-93
2024/02/24 11:17:46;;;;;;;5.80;2.00;;;;;;;;;;6173531;23;20231;-95
2024/02/24 11:20:12;;;;;;;6.18;1.83;;;;;;;;;;6166667;23;20009;-94
2024/02/24 11:22:37;;;;;;;12.30;2.28;;;;;;;;;;6171676;23;19989;-95
2024/02/24 11:25:03;;;;;;;7.55;2.55;;;;;;;;;;6196086;23;20019;-95
2024/02/24 11:27:34;;;;;;;3.40;1.67;;;;;;;;;;6208354;23;20013;-95
2024/02/24 11:32:45;;;;;;;3.08;1.02;;;;;;;;;;6148502;23;20018;-95
2024/02/24 11:35:11;;;;;;;4.65;1.10;;;;;;;;;;6148420;23;20009;-95
2024/02/24 11:37:37;;;;;;;4.35;1.00;;;;;;;;;;6148688;23;20010;-95
2024/02/24 11:40:03;;;;;;;3.28;0.98;;;;;;;;;;6152298;23;20027;-96
2024/02/24 11:45:11;;;;;;;2.60;0.70;;;;;;;;;;6189795;23;19997;-96
2024/02/24 11:47:38;;;;;;;4.07;0.90;;;;;;;;;;6187007;23;20031;-96
2024/02/24 11:50:03;;;;;;;2.67;0.73;;;;;;;;;;6185902;23;19989;-96
2024/02/24 11:52:29;;;;;;;4.60;0.50;;;;;;;;;;6183230;23;20001;-96
2024/02/24 11:54:55;;;;;;;3.03;0.73;;;;;;;;;;6176075;23;20005;-96
2024/02/24 11:57:20;;;;;;;2.30;0.70;;;;;;;;;;6174166;23;20519;-95
2024/02/24 11:59:48;;;;;;;4.15;0.90;;;;;;;;;;6172585;23;20064;-95
2024/02/24 12:02:14;;;;;;;5.28;1.00;;;;;;;;;;6171433;23;20416;-96
2024/02/24 12:04:39;;;;;;;4.95;0.90;;;;;;;;;;6170527;23;20001;-95
2024/02/24 12:07:05;;;;;;;3.90;0.88;;;;;;;;;;6169996;23;20059;-95
2024/02/24 12:09:30;;;;;;;2.03;0.60;;;;;;;;;;6169514;23;20001;-94
2024/02/24 12:11:56;;;;;;;1.98;0.52;;;;;;;;;;6170079;23;20293;-96
2024/02/24 12:14:25;;;;;;;2.05;0.60;;;;;;;;;;6171920;23;19993;-96
2024/02/24 12:16:51;;;;;;;1.92;0.55;;;;;;;;;;6170885;23;20373;-96
2024/02/24 12:19:16;;;;;;;2.15;0.50;;;;;;;;;;6170268;23;20005;-96
2024/02/24 12:21:47;;;;;;;2.72;0.65;;;;;;;;;;6168681;23;20003;-96
2024/02/24 12:24:24;;;;;;;3.05;0.57;;;;;;;;;;6167039;23;20053;-95
2024/02/24 12:26:49;;;;;;;4.93;0.68;;;;;;;;;;6165114;23;20036;-96
2024/02/24 12:29:15;;;;;;;4.60;1.52;;;;;;;;;;6165241;23;20005;-96
2024/02/24 12:31:40;;;;;;;3.17;0.88;;;;;;;;;;6164272;23;19997;-95
2024/02/24 12:34:06;;;;;;;1.80;0.47;;;;;;;;;;6163708;23;20001;-95
2024/02/24 12:36:31;;;;;;;2.03;0.50;;;;;;;;;;6162656;23;20001;-96
2024/02/24 12:38:56;;;;;;;4.65;0.80;;;;;;;;;;6162981;23;20001;-96
2024/02/24 12:41:22;;;;;;;3.00;0.63;;;;;;;;;;6164365;23;20000;-95
2024/02/24 12:43:47;;;;;;;2.22;0.43;;;;;;;;;;6166161;23;20081;-95
2024/02/24 12:46:12;;;;;;;3.50;0.60;;;;;;;;;;6187801;23;20009;-96
2024/02/24 12:48:38;;;;;;;4.32;0.73;;;;;;;;;;6191477;23;20519;-96
2024/02/24 12:51:03;;;;;;;2.70;1.05;;;;;;;;;;6191706;23;20024;-95
2024/02/24 12:53:29;;;;;;;1.48;0.80;;;;;;;;;;6194543;23;20005;-95
2024/02/24 12:55:55;;;;;;;1.15;0.50;;;;;;;;;;6190067;23;20001;-94
2024/02/24 12:58:22;;;;;;;2.75;0.70;;;;;;;;;;6185182;23;20007;-94
2024/02/24 13:00:47;;;;;;;2.05;0.70;;;;;;;;;;6184294;23;20039;-95
2024/02/24 13:03:13;;;;;;;4.18;0.90;;;;;;;;;;6184558;23;19993;-94
2024/02/24 13:05:38;;;;;;;2.17;0.70;;;;;;;;;;6186191;23;20000;-95
2024/02/24 13:08:03;;;;;;;3.13;0.70;;;;;;;;;;6187282;23;20001;-95
2024/02/24 13:10:28;;;;;;;4.00;0.90;;;;;;;;;;6187459;23;19996;-95
2024/02/24 13:12:54;;;;;;;6.28;1.05;;;;;;;;;;6190839;23;20005;-94
2024/02/24 13:15:19;;;;;;;3.08;0.70;;;;;;;;;;6187839;23;20035;-95
2024/02/24 13:17:44;;;;;;;4.20;0.70;;;;;;;;;;6187316;23;19996;-94
2024/02/24 13:20:10;;;;;;;3.63;0.90;;;;;;;;;;6185923;23;19993;-95
2024/02/24 13:22:41;;;;;;;2.58;0.77;;;;;;;;;;6185948;23;20028;-95
2024/02/24 13:25:07;;;;;;;1.85;0.55;;;;;;;;;;6185948;23;20001;-95
2024/02/24 13:27:33;;;;;;;2.10;0.50;;;;;;;;;;6185623;23;20033;-95
2024/02/24 13:29:58;;;;;;;3.97;0.80;;;;;;;;;;6185815;23;20020;-94
2024/02/24 13:32:23;;;;;;;3.03;0.50;;;;;;;;;;6186040;23;20027;-94
2024/02/24 13:34:49;;;;;;;1.90;0.55;;;;;;;;;;6185794;23;20320;-95
2024/02/24 13:37:14;;;;;;;1.25;0.60;;;;;;;;;;6185044;23;20001;-95
2024/02/24 13:39:39;;;;;;;2.53;0.50;;;;;;;;;;6185658;23;19997;-94
2024/02/24 13:42:05;;;;;;;0.85;0.30;;;;;;;;;;6185839;23;20089;-95
2024/02/24 13:44:30;;;;;;;5.40;0.80;;;;;;;;;;6185671;23;20064;-95
2024/02/24 13:46:56;;;;;;;2.42;0.90;;;;;;;;;;6160939;23;20032;-95
2024/02/24 13:49:22;;;;;;;3.90;0.63;;;;;;;;;;6169532;23;20275;-94
2024/02/24 13:51:47;;;;;;;1.08;0.32;;;;;;;;;;6168613;23;19997;-94
2024/02/24 13:54:12;;;;;;;3.45;0.52;;;;;;;;;;6161117;23;20001;-95
2024/02/24 13:56:38;;;;;;;1.40;0.50;;;;;;;;;;6161257;23;20020;-94
2024/02/24 13:59:03;;;;;;;2.97;0.35;;;;;;;;;;6162403;23;20546;-94
2024/02/24 14:01:30;;;;;;;2.63;0.40;;;;;;;;;;6162410;23;20000;-95
2024/02/24 14:03:56;;;;;;;7.97;4.43;;;;;;;;;;6162126;23;20001;-93
2024/02/24 14:06:21;;;;;;;35.30;18.98;;;;;;;;;;6161752;23;20000;-94
2024/02/24 14:08:46;;;;;;;10.27;4.28;;;;;;;;;;6161761;23;19970;-94
2024/02/24 14:11:12;;;;;;;6.63;3.47;;;;;;;;;;6162129;23;20033;-94
2024/02/24 14:13:37;;;;;;;5.00;3.15;;;;;;;;;;6164614;23;20004;-92
2024/02/24 14:16:03;;;;;;;2.60;0.60;;;;;;;;;;6190016;23;19993;-95
2024/02/24 14:18:28;;;;;;;1.15;0.75;;;;;;;;;;6164790;23;20382;-94
2024/02/24 14:20:53;;;;;;;1.17;0.77;;;;;;;;;;6166411;23;20080;-94
2024/02/24 14:23:19;;;;;;;2.42;0.45;;;;;;;;;;6166653;23;19997;-94
2024/02/24 14:25:45;;;;;;;1.58;0.45;;;;;;;;;;6163025;23;20332;-94
2024/02/24 14:28:11;;;;;;;0.98;0.40;;;;;;;;;;6161136;23;20016;-95
2024/02/24 14:30:37;;;;;;;1.58;0.50;;;;;;;;;;6187483;23;20020;-94
2024/02/24 14:33:02;;;;;;;3.05;0.60;;;;;;;;;;6161357;23;20005;-94
2024/02/24 14:35:27;;;;;;;1.55;0.60;;;;;;;;;;6161266;23;20001;-94
2024/02/24 14:37:53;;;;;;;3.97;0.85;;;;;;;;;;6161280;23;20028;-96